createdAt,value
2018-06-27T00:00:08.558Z,15.51
2018-06-27T00:02:37.785Z,15.50
2018-06-27T00:05:07.086Z,15.54
2018-06-27T00:07:36.191Z,15.59
2018-06-27T00:10:07.715Z,15.55
2018-06-27T00:12:36.967Z,15.47
2018-06-27T00:15:07.060Z,15.45
2018-06-27T00:17:36.143Z,15.24
2018-06-27T00:20:07.539Z,15.24
2018-06-27T00:22:37.362Z,15.17
2018-06-27T00:25:06.645Z,15.07
2018-06-27T00:27:36.229Z,15.18
2018-06-27T00:30:07.072Z,15.18
2018-06-27T00:32:36.379Z,15.08
2018-06-27T00:35:05.412Z,15.03
2018-06-27T00:37:34.530Z,14.86
2018-06-27T00:40:07.439Z,15.00
2018-06-27T00:42:36.409Z,14.96
2018-06-27T00:45:06.653Z,14.97
2018-06-27T00:47:35.928Z,14.89
2018-06-27T00:50:08.492Z,14.26
2018-06-27T00:52:37.506Z,14.85
2018-06-27T00:55:07.033Z,14.64
2018-06-27T00:57:36.410Z,14.53
2018-06-27T01:00:09.127Z,14.71
2018-06-27T01:02:38.195Z,14.63
2018-06-27T01:05:07.343Z,14.69
2018-06-27T01:07:36.818Z,14.75
2018-06-27T01:10:08.284Z,14.59
2018-06-27T01:12:37.658Z,14.55
2018-06-27T01:15:07.575Z,14.56
2018-06-27T01:17:37.180Z,14.51
2018-06-27T01:20:08.212Z,14.45
2018-06-27T01:22:37.340Z,14.33
2018-06-27T01:25:06.645Z,14.23
2018-06-27T01:27:35.753Z,14.17
2018-06-27T01:30:08.087Z,14.24
2018-06-27T01:32:37.117Z,14.26
2018-06-27T01:35:06.307Z,14.38
2018-06-27T01:37:35.386Z,14.28
2018-06-27T01:40:09.333Z,14.23
2018-06-27T01:42:38.680Z,14.30
2018-06-27T01:45:07.754Z,14.12
2018-06-27T01:47:36.743Z,14.08
2018-06-27T01:50:07.709Z,14.10
2018-06-27T01:52:36.824Z,14.22
2018-06-27T01:55:06.340Z,14.33
2018-06-27T01:57:35.485Z,14.16
2018-06-27T02:00:08.727Z,13.86
2018-06-27T02:02:38.003Z,13.81
2018-06-27T02:05:07.060Z,13.97
2018-06-27T02:07:36.020Z,13.94
2018-06-27T02:10:08.251Z,13.91
2018-06-27T02:12:37.373Z,13.87
2018-06-27T02:15:07.023Z,13.90
2018-06-27T02:17:36.191Z,13.83
2018-06-27T02:20:08.200Z,13.91
2018-06-27T02:22:37.321Z,13.95
2018-06-27T02:25:06.438Z,13.93
2018-06-27T02:27:35.577Z,13.96
2018-06-27T02:30:07.884Z,13.75
2018-06-27T02:32:37.199Z,13.85
2018-06-27T02:35:06.513Z,13.80
2018-06-27T02:37:35.815Z,13.85
2018-06-27T02:40:08.456Z,13.90
2018-06-27T02:42:37.396Z,13.82
2018-06-27T02:45:06.600Z,13.82
2018-06-27T02:47:35.530Z,13.69
2018-06-27T02:50:07.818Z,13.73
2018-06-27T02:52:36.926Z,13.70
2018-06-27T02:55:06.473Z,13.91
2018-06-27T02:57:35.706Z,13.69
2018-06-27T03:00:08.555Z,13.64
2018-06-27T03:02:37.835Z,13.75
2018-06-27T03:05:06.872Z,13.80
2018-06-27T03:07:36.015Z,13.64
2018-06-27T03:10:08.145Z,13.69
2018-06-27T03:12:37.479Z,13.60
2018-06-27T03:15:07.880Z,13.66
2018-06-27T03:17:37.710Z,13.65
2018-06-27T03:20:08.222Z,13.64
2018-06-27T03:22:37.316Z,13.51
2018-06-27T03:25:06.405Z,13.59
2018-06-27T03:27:35.537Z,13.53
2018-06-27T03:30:09.235Z,13.51
2018-06-27T03:32:38.756Z,13.60
2018-06-27T03:35:07.994Z,13.67
2018-06-27T03:37:37.113Z,13.74
2018-06-27T03:40:07.931Z,13.76
2018-06-27T03:42:37.740Z,13.79
2018-06-27T03:45:08.204Z,13.87
2018-06-27T03:47:37.287Z,13.93
2018-06-27T03:50:08.379Z,13.93
2018-06-27T03:52:43.821Z,13.89
2018-06-27T03:55:13.044Z,13.80
2018-06-27T03:57:42.166Z,13.73
2018-06-27T04:00:11.444Z,13.58
2018-06-27T04:02:40.990Z,13.64
2018-06-27T04:05:10.176Z,13.79
2018-06-27T04:07:39.275Z,13.86
2018-06-27T04:10:10.569Z,13.93
2018-06-27T04:12:39.819Z,13.85
2018-06-27T04:15:09.157Z,13.68
2018-06-27T04:17:38.611Z,13.74
2018-06-27T04:20:07.736Z,13.74
2018-06-27T04:22:37.059Z,14.07
2018-06-27T04:25:06.073Z,13.92
2018-06-27T04:27:35.399Z,13.93
2018-06-27T04:30:07.931Z,13.95
2018-06-27T04:32:37.170Z,14.02
2018-06-27T04:35:06.500Z,13.94
2018-06-27T04:37:36.386Z,14.12
2018-06-27T04:40:09.657Z,14.05
2018-06-27T04:42:39.219Z,14.12
2018-06-27T04:45:08.198Z,14.13
2018-06-27T04:47:38.390Z,14.14
2018-06-27T04:50:07.716Z,14.26
2018-06-27T04:52:36.723Z,14.40
2018-06-27T04:55:06.127Z,14.38
2018-06-27T04:57:35.298Z,14.37
2018-06-27T05:00:08.803Z,14.70
2018-06-27T05:02:37.737Z,14.70
2018-06-27T05:05:07.002Z,14.81
2018-06-27T05:07:36.150Z,15.09
2018-06-27T05:10:08.075Z,15.17
2018-06-27T05:12:37.847Z,15.40
2018-06-27T05:15:06.936Z,15.68
2018-06-27T05:17:35.939Z,15.73
2018-06-27T05:20:08.907Z,15.79
2018-06-27T05:22:38.010Z,15.76
2018-06-27T05:25:07.112Z,16.00
2018-06-27T05:27:36.220Z,15.93
2018-06-27T05:30:08.699Z,16.20
2018-06-27T05:32:37.755Z,16.40
2018-06-27T05:35:06.923Z,16.41
2018-06-27T05:37:36.972Z,16.53
2018-06-27T05:40:07.364Z,16.48
2018-06-27T05:42:36.716Z,16.61
2018-06-27T05:45:06.213Z,16.76
2018-06-27T05:47:35.191Z,16.63
2018-06-27T05:50:07.987Z,16.13
2018-06-27T05:52:37.098Z,15.90
2018-06-27T05:55:07.564Z,16.02
2018-06-27T05:57:39.042Z,16.42
2018-06-27T06:00:09.748Z,16.50
2018-06-27T06:02:39.866Z,16.55
2018-06-27T06:05:09.447Z,16.31
2018-06-27T06:07:38.489Z,16.18
2018-06-27T06:10:07.720Z,16.54
2018-06-27T06:12:36.803Z,16.25
2018-06-27T06:15:06.563Z,16.32
2018-06-27T06:17:35.807Z,16.38
2018-06-27T06:20:08.582Z,16.55
2018-06-27T06:22:37.847Z,16.65
2018-06-27T06:25:07.331Z,16.47
2018-06-27T06:27:36.612Z,16.79
2018-06-27T06:30:08.787Z,16.90
2018-06-27T06:32:38.037Z,17.04
2018-06-27T06:35:07.303Z,17.22
2018-06-27T06:37:37.212Z,16.82
2018-06-27T06:40:07.784Z,17.02
2018-06-27T06:42:37.189Z,17.01
2018-06-27T06:45:06.319Z,17.25
2018-06-27T06:47:35.255Z,17.60
2018-06-27T06:50:08.398Z,17.77
2018-06-27T06:52:37.695Z,18.23
2018-06-27T06:55:07.007Z,18.50
2018-06-27T06:57:36.546Z,18.64
2018-06-27T07:00:09.209Z,19.22
2018-06-27T07:02:38.303Z,19.49
2018-06-27T07:05:07.817Z,20.44
2018-06-27T07:07:36.924Z,21.58
2018-06-27T07:10:07.311Z,22.67
2018-06-27T07:12:37.419Z,22.84
2018-06-27T07:15:06.523Z,24.42
2018-06-27T07:17:35.785Z,24.67
2018-06-27T07:20:08.730Z,22.45
2018-06-27T07:22:37.802Z,23.15
2018-06-27T07:25:07.160Z,23.32
2018-06-27T07:27:37.239Z,23.89
2018-06-27T07:30:09.432Z,24.14
2018-06-27T07:32:38.491Z,23.52
2018-06-27T07:35:07.727Z,25.47
2018-06-27T07:37:37.751Z,26.37
2018-06-27T07:40:07.556Z,26.31
2018-06-27T07:42:36.825Z,24.80
2018-06-27T07:45:05.920Z,23.67
2018-06-27T07:47:34.895Z,22.17
2018-06-27T07:50:08.566Z,22.42
2018-06-27T07:52:37.699Z,21.09
2018-06-27T07:55:06.879Z,20.76
2018-06-27T07:57:36.179Z,20.66
2018-06-27T08:00:10.151Z,21.68
2018-06-27T08:02:39.105Z,21.46
2018-06-27T08:05:08.328Z,21.49
2018-06-27T08:07:37.257Z,22.51
2018-06-27T08:10:07.525Z,23.89
2018-06-27T08:12:37.308Z,24.22
2018-06-27T08:15:07.020Z,23.10
2018-06-27T08:17:36.384Z,22.08
2018-06-27T08:20:08.628Z,21.85
2018-06-27T08:22:38.096Z,22.68
2018-06-27T08:25:07.409Z,22.54
2018-06-27T08:27:36.508Z,24.24
2018-06-27T08:30:07.202Z,25.03
2018-06-27T08:32:36.493Z,26.34
2018-06-27T08:35:05.759Z,26.67
2018-06-27T08:37:35.059Z,24.73
2018-06-27T08:40:07.400Z,27.02
2018-06-27T08:42:36.353Z,28.12
2018-06-27T08:45:05.846Z,29.10
2018-06-27T08:47:35.105Z,27.80
2018-06-27T08:50:09.094Z,29.21
2018-06-27T08:52:38.026Z,29.29
2018-06-27T08:55:07.365Z,28.73
2018-06-27T08:57:36.607Z,28.39
2018-06-27T09:00:07.442Z,28.12
2018-06-27T09:02:36.574Z,27.78
2018-06-27T09:05:06.669Z,25.56
2018-06-27T09:07:35.772Z,24.23
2018-06-27T09:10:08.030Z,25.36
2018-06-27T09:12:37.119Z,26.45
2018-06-27T09:15:06.243Z,26.55
2018-06-27T09:17:36.479Z,27.31
2018-06-27T09:20:07.383Z,28.04
2018-06-27T09:22:36.983Z,26.35
2018-06-27T09:25:06.216Z,26.96
2018-06-27T09:27:35.690Z,28.06
2018-06-27T09:30:08.876Z,30.45
2018-06-27T09:32:37.831Z,32.38
2018-06-27T09:35:07.287Z,33.51
2018-06-27T09:37:36.571Z,33.60
2018-06-27T09:40:09.132Z,33.14
2018-06-27T09:42:39.264Z,34.14
2018-06-27T09:45:08.347Z,34.88
2018-06-27T09:47:37.462Z,33.71
2018-06-27T09:50:07.967Z,32.09
2018-06-27T09:52:37.279Z,33.03
2018-06-27T09:55:06.471Z,34.72
2018-06-27T09:57:35.589Z,34.74
2018-06-27T10:00:12.835Z,32.98
2018-06-27T10:02:42.053Z,32.17
2018-06-27T10:05:11.140Z,33.86
2018-06-27T10:07:40.336Z,35.20
2018-06-27T10:10:09.651Z,34.75
2018-06-27T10:12:38.745Z,34.55
2018-06-27T10:15:08.487Z,31.76
2018-06-27T10:17:37.543Z,34.29
2018-06-27T10:20:08.489Z,33.52
2018-06-27T10:22:37.585Z,34.15
2018-06-27T10:25:07.127Z,35.24
2018-06-27T10:27:36.191Z,34.41
2018-06-27T10:30:08.731Z,33.65
2018-06-27T10:32:37.767Z,33.13
2018-06-27T10:35:06.842Z,32.75
2018-06-27T10:37:35.942Z,33.78
2018-06-27T10:40:08.986Z,30.82
2018-06-27T10:42:38.247Z,33.23
2018-06-27T10:45:07.512Z,32.38
2018-06-27T10:47:37.238Z,33.08
2018-06-27T10:50:07.420Z,33.87
2018-06-27T10:52:37.045Z,34.49
2018-06-27T10:55:17.731Z,34.79
2018-06-27T10:57:46.783Z,34.93
2018-06-27T11:00:15.931Z,33.41
2018-06-27T11:02:44.900Z,33.83
2018-06-27T11:05:14.142Z,33.57
2018-06-27T11:07:44.086Z,32.53
2018-06-27T11:10:13.502Z,31.68
2018-06-27T11:12:42.551Z,32.10
2018-06-27T11:15:11.622Z,30.00
2018-06-27T11:17:40.727Z,30.72
2018-06-27T11:20:09.770Z,29.72
2018-06-27T11:22:38.815Z,29.06
2018-06-27T11:25:07.780Z,28.09
2018-06-27T11:27:36.987Z,27.80
2018-06-27T11:30:07.856Z,27.40
2018-06-27T11:32:37.027Z,28.23
2018-06-27T11:35:06.120Z,28.32
2018-06-27T11:37:35.319Z,28.05
2018-06-27T11:40:08.113Z,27.72
2018-06-27T11:42:37.213Z,28.01
2018-06-27T11:45:06.368Z,28.25
2018-06-27T11:47:35.613Z,27.87
2018-06-27T11:50:08.359Z,27.98
2018-06-27T11:52:37.467Z,28.33
2018-06-27T11:55:11.666Z,28.46
2018-06-27T11:57:42.857Z,28.46
2018-06-27T12:00:12.139Z,28.64
2018-06-27T12:02:41.935Z,28.95
2018-06-27T12:05:11.103Z,28.46
2018-06-27T12:07:40.513Z,28.22
2018-06-27T12:10:09.559Z,28.66
2018-06-27T12:12:38.808Z,28.16
2018-06-27T12:15:07.734Z,27.54
2018-06-27T12:17:36.708Z,27.42
2018-06-27T12:20:07.428Z,27.41
2018-06-27T12:22:36.855Z,27.21
2018-06-27T12:25:06.035Z,27.20
2018-06-27T12:27:35.700Z,27.34
2018-06-27T12:30:17.393Z,27.42
2018-06-27T12:32:46.699Z,27.91
2018-06-27T12:35:15.780Z,27.79
2018-06-27T12:37:44.840Z,27.98
2018-06-27T12:40:14.017Z,28.37
2018-06-27T12:42:43.073Z,28.50
2018-06-27T12:45:12.514Z,28.53
2018-06-27T12:47:42.464Z,28.37
2018-06-27T12:50:11.512Z,28.45
2018-06-27T12:52:40.796Z,28.45
2018-06-27T12:55:12.160Z,28.61
2018-06-27T12:57:41.588Z,27.66
2018-06-27T13:00:11.681Z,27.28
2018-06-27T13:02:41.160Z,27.12
2018-06-27T13:05:10.909Z,26.87
2018-06-27T13:07:40.315Z,26.78
2018-06-27T13:10:10.185Z,27.00
2018-06-27T13:12:39.621Z,27.55
2018-06-27T13:15:08.604Z,28.09
2018-06-27T13:17:37.556Z,28.50
2018-06-27T13:20:08.031Z,28.49
2018-06-27T13:22:37.483Z,28.29
2018-06-27T13:25:06.741Z,27.83
2018-06-27T13:27:36.104Z,27.56
2018-06-27T13:30:08.651Z,27.37
2018-06-27T13:32:37.582Z,28.01
2018-06-27T13:35:07.120Z,28.24
2018-06-27T13:37:36.351Z,28.03
2018-06-27T13:40:09.601Z,27.50
2018-06-27T13:42:39.480Z,26.98
2018-06-27T13:45:08.862Z,26.86
2018-06-27T13:47:38.052Z,26.68
2018-06-27T13:50:07.717Z,27.08
2018-06-27T13:52:36.852Z,27.43
2018-06-27T13:55:07.031Z,27.73
2018-06-27T13:57:36.723Z,27.79
2018-06-27T14:00:07.823Z,27.30
2018-06-27T14:02:36.901Z,26.92
2018-06-27T14:05:06.251Z,27.07
2018-06-27T14:07:35.307Z,27.46
2018-06-27T14:10:07.447Z,27.63
2018-06-27T14:12:36.696Z,27.88
2018-06-27T14:15:06.810Z,28.21
2018-06-27T14:17:35.931Z,28.26
2018-06-27T14:20:08.044Z,28.38
2018-06-27T14:22:37.006Z,27.95
2018-06-27T14:25:06.383Z,27.49
2018-06-27T14:27:35.683Z,27.45
2018-06-27T14:30:09.908Z,27.62
2018-06-27T14:32:39.446Z,27.74
2018-06-27T14:35:08.695Z,27.69
2018-06-27T14:37:37.798Z,27.83
2018-06-27T14:40:09.196Z,27.57
2018-06-27T14:42:38.219Z,27.55
2018-06-27T14:45:08.400Z,27.69
2018-06-27T14:47:38.095Z,27.75
2018-06-27T14:50:08.854Z,27.79
2018-06-27T14:52:38.324Z,27.87
2018-06-27T14:55:09.287Z,27.91
2018-06-27T14:57:38.951Z,27.89
2018-06-27T15:00:10.119Z,27.74
2018-06-27T15:02:39.395Z,27.76
2018-06-27T15:05:08.486Z,27.75
2018-06-27T15:07:37.587Z,27.92
2018-06-27T15:10:08.955Z,28.01
2018-06-27T15:12:38.214Z,27.85
2018-06-27T15:15:08.387Z,27.82
2018-06-27T15:17:37.544Z,27.98
2018-06-27T15:20:08.792Z,27.99
2018-06-27T15:22:37.944Z,27.86
2018-06-27T15:25:07.010Z,27.96
2018-06-27T15:27:36.418Z,27.91
2018-06-27T15:30:09.912Z,27.90
2018-06-27T15:32:39.120Z,27.97
2018-06-27T15:35:08.084Z,28.06
2018-06-27T15:37:37.179Z,28.08
2018-06-27T15:40:07.925Z,28.00
2018-06-27T15:42:37.256Z,27.90
2018-06-27T15:45:06.733Z,27.90
2018-06-27T15:47:36.183Z,27.90
2018-06-27T15:50:07.090Z,27.89
2018-06-27T15:52:36.791Z,27.80
2018-06-27T15:55:06.487Z,27.73
2018-06-27T15:57:35.740Z,27.76
2018-06-27T16:00:09.254Z,27.68
2018-06-27T16:02:39.516Z,27.79
2018-06-27T16:05:08.807Z,27.79
2018-06-27T16:07:38.094Z,27.68
2018-06-27T16:10:08.908Z,27.56
2018-06-27T16:12:38.159Z,27.50
2018-06-27T16:15:07.467Z,27.38
2018-06-27T16:17:37.227Z,27.22
2018-06-27T16:20:10.451Z,27.17
2018-06-27T16:22:39.989Z,27.16
2018-06-27T16:25:08.980Z,27.32
2018-06-27T16:27:38.172Z,27.43
2018-06-27T16:30:09.083Z,27.34
2018-06-27T16:32:38.283Z,27.38
2018-06-27T16:35:07.547Z,27.21
2018-06-27T16:37:36.682Z,27.33
2018-06-27T16:40:10.060Z,27.47
2018-06-27T16:42:39.215Z,27.37
2018-06-27T16:45:08.713Z,27.28
2018-06-27T16:47:37.975Z,27.21
2018-06-27T16:50:11.097Z,27.15
2018-06-27T16:52:40.335Z,27.18
2018-06-27T16:55:09.651Z,27.22
2018-06-27T16:57:38.999Z,27.11
2018-06-27T17:00:10.402Z,27.04
2018-06-27T17:02:39.382Z,27.06
2018-06-27T17:05:09.244Z,26.94
2018-06-27T17:07:38.552Z,26.94
2018-06-27T17:10:09.454Z,26.93
2018-06-27T17:12:38.517Z,26.93
2018-06-27T17:15:08.236Z,26.93
2018-06-27T17:17:37.961Z,26.79
2018-06-27T17:20:09.207Z,26.75
2018-06-27T17:22:38.703Z,26.77
2018-06-27T17:25:08.211Z,26.71
2018-06-27T17:27:37.570Z,26.70
2018-06-27T17:30:10.528Z,26.60
2018-06-27T17:32:39.571Z,26.57
2018-06-27T17:35:09.043Z,26.57
2018-06-27T17:37:38.207Z,26.57
2018-06-27T17:40:08.564Z,26.50
2018-06-27T17:42:37.700Z,26.40
2018-06-27T17:45:07.005Z,26.47
2018-06-27T17:47:36.131Z,26.33
2018-06-27T17:50:09.055Z,26.38
2018-06-27T17:52:38.209Z,26.31
2018-06-27T17:55:08.495Z,26.33
2018-06-27T17:57:37.762Z,26.28
2018-06-27T18:00:10.971Z,26.26
2018-06-27T18:02:40.408Z,26.17
2018-06-27T18:05:09.846Z,26.09
2018-06-27T18:07:39.201Z,26.07
2018-06-27T18:10:12.500Z,26.08
2018-06-27T18:12:42.141Z,26.02
2018-06-27T18:15:11.239Z,26.02
2018-06-27T18:17:40.191Z,25.97
2018-06-27T18:20:13.424Z,25.87
2018-06-27T18:22:43.365Z,25.88
2018-06-27T18:25:12.871Z,25.78
2018-06-27T18:27:41.910Z,25.74
2018-06-27T18:30:13.355Z,25.65
2018-06-27T18:32:42.664Z,25.55
2018-06-27T18:35:11.851Z,25.47
2018-06-27T18:37:41.096Z,25.47
2018-06-27T18:40:13.271Z,25.49
2018-06-27T18:42:42.238Z,25.43
2018-06-27T18:45:11.460Z,25.37
2018-06-27T18:47:40.489Z,25.32
2018-06-27T18:50:11.938Z,25.26
2018-06-27T18:52:41.451Z,25.14
2018-06-27T18:55:10.457Z,25.13
2018-06-27T18:57:39.571Z,25.08
2018-06-27T19:07:12.001Z,24.93
2018-06-27T19:09:41.301Z,24.90
2018-06-27T19:12:10.879Z,24.91
2018-06-27T19:14:39.844Z,24.86
2018-06-27T19:17:08.849Z,24.84
2018-06-27T19:19:37.878Z,24.82
2018-06-27T19:22:06.983Z,24.79
2018-06-27T19:24:36.663Z,24.72
2018-06-27T19:27:06.324Z,24.65
2018-06-27T19:29:35.292Z,24.58
2018-06-27T19:32:04.662Z,24.53
2018-06-27T19:34:34.938Z,24.46
2018-06-27T19:37:03.967Z,24.41
2018-06-27T19:39:37.463Z,24.36
2018-06-27T19:42:02.892Z,24.22
2018-06-27T19:44:32.415Z,24.17
2018-06-27T19:47:02.106Z,24.08
2018-06-27T19:49:31.036Z,23.96
2018-06-27T19:52:00.412Z,23.81
2018-06-27T19:54:29.684Z,23.82
2018-06-27T19:56:59.004Z,23.81
2018-06-27T19:59:28.537Z,23.68
2018-06-27T20:01:57.863Z,23.44
2018-06-27T20:04:27.127Z,23.37
2018-06-27T20:06:56.421Z,23.29
2018-06-27T20:09:25.609Z,23.15
2018-06-27T20:11:56.524Z,23.08
2018-06-27T20:14:25.995Z,22.92
2018-06-27T20:16:55.454Z,22.89
2018-06-27T20:19:24.814Z,22.76
2018-06-27T20:21:53.995Z,22.63
2018-06-27T20:24:23.259Z,22.38
2018-06-27T20:26:52.635Z,22.21
2018-06-27T20:29:21.636Z,22.07
2018-06-27T20:31:50.982Z,21.98
2018-06-27T20:34:20.299Z,21.86
2018-06-27T20:36:49.384Z,21.79
2018-06-27T20:39:18.525Z,21.78
2018-06-27T20:41:47.888Z,21.57
2018-06-27T20:44:17.868Z,21.48
2018-06-27T20:46:47.051Z,21.48
2018-06-27T20:49:16.177Z,21.38
2018-06-27T20:51:45.255Z,21.25
2018-06-27T20:54:14.431Z,21.17
2018-06-27T20:56:43.371Z,21.16
2018-06-27T20:59:12.616Z,21.06
2018-06-27T21:01:41.684Z,20.99
2018-06-27T21:04:11.863Z,21.04
2018-06-27T21:06:41.087Z,20.93
2018-06-27T21:09:11.147Z,20.78
2018-06-27T21:11:40.244Z,20.66
2018-06-27T21:14:09.241Z,20.71
2018-06-27T21:16:38.211Z,20.64
2018-06-27T21:19:07.287Z,20.49
2018-06-27T21:21:37.063Z,20.34
2018-06-27T21:24:06.333Z,20.47
2018-06-27T21:26:35.481Z,20.41
2018-06-27T21:29:05.040Z,20.46
2018-06-27T21:31:35.410Z,20.26
2018-06-27T21:34:04.627Z,20.21
2018-06-27T21:36:33.661Z,20.20
2018-06-27T21:39:02.780Z,20.03
2018-06-27T21:41:32.100Z,19.95
2018-06-27T21:44:01.171Z,19.88
2018-06-27T21:46:30.825Z,19.95
2018-06-27T21:49:00.159Z,19.83
2018-06-27T21:51:30.586Z,19.69
2018-06-27T21:54:00.095Z,19.67
2018-06-27T21:56:29.131Z,19.57
2018-06-27T21:58:58.358Z,19.37
2018-06-27T22:01:28.246Z,19.44
2018-06-27T22:03:57.748Z,19.49
2018-06-27T22:06:27.241Z,19.49
2018-06-27T22:08:57.627Z,19.57
2018-06-27T22:11:27.012Z,19.47
2018-06-27T22:13:55.936Z,19.32
2018-06-27T22:16:25.433Z,19.28
2018-06-27T22:18:54.520Z,19.24
2018-06-27T22:21:23.830Z,19.26
2018-06-27T22:23:52.950Z,19.17
2018-06-27T22:26:22.203Z,19.13
2018-06-27T22:28:51.493Z,19.33
2018-06-27T22:31:20.644Z,19.42
2018-06-27T22:33:50.384Z,19.16
2018-06-27T22:36:19.797Z,19.11
2018-06-27T22:38:49.262Z,18.93
2018-06-27T22:41:18.529Z,18.90
2018-06-27T22:43:47.451Z,18.79
2018-06-27T22:46:16.508Z,18.86
2018-06-27T22:48:45.673Z,18.88
2018-06-27T22:51:14.864Z,18.85
2018-06-27T22:53:43.774Z,18.75
2018-06-27T22:56:12.707Z,18.71
2018-06-27T22:58:42.103Z,18.54
2018-06-27T23:01:11.683Z,18.55
2018-06-27T23:03:40.944Z,18.50
2018-06-27T23:06:10.547Z,18.33
2018-06-27T23:08:40.148Z,18.15
2018-06-27T23:11:09.451Z,18.35
2018-06-27T23:13:38.686Z,18.29
2018-06-27T23:16:08.291Z,18.33
2018-06-27T23:18:37.522Z,18.22
2018-06-27T23:21:06.638Z,18.12
2018-06-27T23:23:36.116Z,18.04
2018-06-27T23:26:05.388Z,18.02
2018-06-27T23:28:34.571Z,18.01
2018-06-27T23:31:03.516Z,17.95
2018-06-27T23:33:34.439Z,17.84
2018-06-27T23:36:03.764Z,17.82
2018-06-27T23:38:33.083Z,17.70
2018-06-27T23:41:02.506Z,17.72
2018-06-27T23:43:32.410Z,17.49
2018-06-27T23:46:01.569Z,17.48
2018-06-27T23:48:30.673Z,17.55
2018-06-27T23:51:00.020Z,17.48
2018-06-27T23:53:29.852Z,17.40
2018-06-27T23:55:59.047Z,17.52
2018-06-27T23:58:29.931Z,17.53
